Terminal Aerodrome Forecast
Issued by NWS

Home | Current Version | Previous Version | Text Only | Print | Product List | Glossary Off
Versions: 1 2 3 4 5 6 7 8 9 10 11 12 13 14 15 16 17 18 19 20 21 22 23 24 25 26 27 28 29 30 31 32 33 34 35 36 37 38 39 40 41 42
000 FTUS41 KBOX 231126 TAFMHT TAF KMHT 231126Z 2312/2412 01014G27KT 5SM SHRA BR OVC015 WS020/04045KT FM231700 01013G24KT 6SM -SHRA BR OVC015 FM240200 35010G22KT 3SM BR OVC010 FM241000 33008KT 3SM BR OVC015=

USA.gov is the U.S. government's official web portal to all federal, state and local government web resources and services.